sensor_id;sensor_type;location;lat;lon;timestamp;temperature;humidity
5683;DHT22;2864;49.220;8.654;2023-09-07T00:00:59;15.00;99.90
5683;DHT22;2864;49.220;8.654;2023-09-07T00:03:26;15.00;99.90
5683;DHT22;2864;49.220;8.654;2023-09-07T00:05:52;15.00;99.90
5683;DHT22;2864;49.220;8.654;2023-09-07T00:08:17;15.00;99.90
5683;DHT22;2864;49.220;8.654;2023-09-07T00:10:43;14.90;99.90
5683;DHT22;2864;49.220;8.654;2023-09-07T00:13:08;14.90;99.90
5683;DHT22;2864;49.220;8.654;2023-09-07T00:15:38;14.90;99.90
5683;DHT22;2864;49.220;8.654;2023-09-07T00:18:04;14.80;99.90
5683;DHT22;2864;49.220;8.654;2023-09-07T00:20:29;14.80;99.90
5683;DHT22;2864;49.220;8.654;2023-09-07T00:22:55;14.80;99.90
5683;DHT22;2864;49.220;8.654;2023-09-07T00:25:21;14.80;99.90
5683;DHT22;2864;49.220;8.654;2023-09-07T00:27:47;14.80;99.90
5683;DHT22;2864;49.220;8.654;2023-09-07T00:30:12;14.80;99.90
5683;DHT22;2864;49.220;8.654;2023-09-07T00:32:38;15.00;99.90
5683;DHT22;2864;49.220;8.654;2023-09-07T00:35:05;14.80;99.90
5683;DHT22;2864;49.220;8.654;2023-09-07T00:37:31;14.90;99.90
5683;DHT22;2864;49.220;8.654;2023-09-07T00:39:56;14.90;99.90
5683;DHT22;2864;49.220;8.654;2023-09-07T00:42:22;14.90;99.90
5683;DHT22;2864;49.220;8.654;2023-09-07T00:44:47;14.90;99.90
5683;DHT22;2864;49.220;8.654;2023-09-07T00:47:16;15.00;99.90
5683;DHT22;2864;49.220;8.654;2023-09-07T00:49:42;15.00;99.90
5683;DHT22;2864;49.220;8.654;2023-09-07T00:52:08;15.00;99.90
5683;DHT22;2864;49.220;8.654;2023-09-07T00:54:37;15.00;99.90
5683;DHT22;2864;49.220;8.654;2023-09-07T00:57:07;15.00;99.90
5683;DHT22;2864;49.220;8.654;2023-09-07T00:59:33;15.00;99.90
5683;DHT22;2864;49.220;8.654;2023-09-07T01:01:59;15.00;99.90
5683;DHT22;2864;49.220;8.654;2023-09-07T01:04:24;15.00;99.90
5683;DHT22;2864;49.220;8.654;2023-09-07T01:06:59;15.00;99.90
5683;DHT22;2864;49.220;8.654;2023-09-07T01:09:29;15.00;99.90
5683;DHT22;2864;49.220;8.654;2023-09-07T01:11:56;15.20;99.90
5683;DHT22;2864;49.220;8.654;2023-09-07T01:14:22;15.10;99.90
5683;DHT22;2864;49.220;8.654;2023-09-07T01:16:48;15.10;99.90
5683;DHT22;2864;49.220;8.654;2023-09-07T01:19:14;15.10;99.90
5683;DHT22;2864;49.220;8.654;2023-09-07T01:21:40;15.10;99.90
5683;DHT22;2864;49.220;8.654;2023-09-07T01:24:09;15.10;99.90
5683;DHT22;2864;49.220;8.654;2023-09-07T01:26:35;15.10;99.90
5683;DHT22;2864;49.220;8.654;2023-09-07T01:29:04;15.10;99.90
5683;DHT22;2864;49.220;8.654;2023-09-07T01:31:30;15.10;99.90
5683;DHT22;2864;49.220;8.654;2023-09-07T01:33:55;15.10;99.90
5683;DHT22;2864;49.220;8.654;2023-09-07T01:36:21;15.10;99.90
5683;DHT22;2864;49.220;8.654;2023-09-07T01:38:46;15.10;99.90
5683;DHT22;2864;49.220;8.654;2023-09-07T01:41:12;15.10;99.90
5683;DHT22;2864;49.220;8.654;2023-09-07T01:43:37;15.10;99.90
5683;DHT22;2864;49.220;8.654;2023-09-07T01:46:03;15.20;99.90
5683;DHT22;2864;49.220;8.654;2023-09-07T01:48:28;15.10;99.90
5683;DHT22;2864;49.220;8.654;2023-09-07T01:50:54;15.10;99.90
5683;DHT22;2864;49.220;8.654;2023-09-07T01:53:20;15.10;99.90
5683;DHT22;2864;49.220;8.654;2023-09-07T01:55:45;15.10;99.90
5683;DHT22;2864;49.220;8.654;2023-09-07T01:58:11;15.10;99.90
5683;DHT22;2864;49.220;8.654;2023-09-07T02:00:37;15.10;99.90
5683;DHT22;2864;49.220;8.654;2023-09-07T02:03:05;15.10;99.90
5683;DHT22;2864;49.220;8.654;2023-09-07T02:05:31;15.10;99.90
5683;DHT22;2864;49.220;8.654;2023-09-07T02:07:58;15.00;99.90
5683;DHT22;2864;49.220;8.654;2023-09-07T02:10:23;15.00;99.90
5683;DHT22;2864;49.220;8.654;2023-09-07T02:12:49;16.50;99.90
5683;DHT22;2864;49.220;8.654;2023-09-07T02:15:15;15.00;99.90
5683;DHT22;2864;49.220;8.654;2023-09-07T02:17:40;15.20;99.90
5683;DHT22;2864;49.220;8.654;2023-09-07T02:20:11;15.10;99.90
5683;DHT22;2864;49.220;8.654;2023-09-07T02:22:38;15.20;99.90
5683;DHT22;2864;49.220;8.654;2023-09-07T02:25:04;15.20;99.90
5683;DHT22;2864;49.220;8.654;2023-09-07T02:27:35;15.30;99.90
5683;DHT22;2864;49.220;8.654;2023-09-07T02:30:02;15.40;99.90
5683;DHT22;2864;49.220;8.654;2023-09-07T02:32:28;15.50;99.90
5683;DHT22;2864;49.220;8.654;2023-09-07T02:34:53;15.50;99.90
5683;DHT22;2864;49.220;8.654;2023-09-07T02:37:19;15.60;99.90
5683;DHT22;2864;49.220;8.654;2023-09-07T02:39:45;16.00;99.90
5683;DHT22;2864;49.220;8.654;2023-09-07T02:42:10;15.70;99.90
5683;DHT22;2864;49.220;8.654;2023-09-07T02:44:36;15.60;99.90
5683;DHT22;2864;49.220;8.654;2023-09-07T02:47:01;15.70;99.90
5683;DHT22;2864;49.220;8.654;2023-09-07T02:49:27;15.70;99.90
5683;DHT22;2864;49.220;8.654;2023-09-07T02:51:52;15.70;99.90
5683;DHT22;2864;49.220;8.654;2023-09-07T02:54:18;15.70;99.90
5683;DHT22;2864;49.220;8.654;2023-09-07T02:56:44;15.70;99.90
5683;DHT22;2864;49.220;8.654;2023-09-07T02:59:09;15.70;99.90
5683;DHT22;2864;49.220;8.654;2023-09-07T03:01:34;15.70;99.90
5683;DHT22;2864;49.220;8.654;2023-09-07T03:04:00;15.80;99.90
5683;DHT22;2864;49.220;8.654;2023-09-07T03:06:26;15.80;99.90
5683;DHT22;2864;49.220;8.654;2023-09-07T03:08:51;15.80;99.90
5683;DHT22;2864;49.220;8.654;2023-09-07T03:11:17;16.10;99.90
5683;DHT22;2864;49.220;8.654;2023-09-07T03:13:43;15.80;99.90
5683;DHT22;2864;49.220;8.654;2023-09-07T03:16:09;15.90;99.90
5683;DHT22;2864;49.220;8.654;2023-09-07T03:18:34;15.90;99.90
5683;DHT22;2864;49.220;8.654;2023-09-07T03:21:01;16.00;99.90
5683;DHT22;2864;49.220;8.654;2023-09-07T03:23:31;16.00;99.90
5683;DHT22;2864;49.220;8.654;2023-09-07T03:25:58;16.00;99.90
5683;DHT22;2864;49.220;8.654;2023-09-07T03:28:24;16.10;99.90
5683;DHT22;2864;49.220;8.654;2023-09-07T03:30:51;17.10;99.90
5683;DHT22;2864;49.220;8.654;2023-09-07T03:33:17;16.00;99.90
5683;DHT22;2864;49.220;8.654;2023-09-07T03:35:42;16.00;99.90
5683;DHT22;2864;49.220;8.654;2023-09-07T03:38:08;16.00;99.90
5683;DHT22;2864;49.220;8.654;2023-09-07T03:40:33;16.00;99.90
5683;DHT22;2864;49.220;8.654;2023-09-07T03:42:59;15.90;99.90
5683;DHT22;2864;49.220;8.654;2023-09-07T03:45:25;15.80;99.90
5683;DHT22;2864;49.220;8.654;2023-09-07T03:47:50;15.90;99.90
5683;DHT22;2864;49.220;8.654;2023-09-07T03:50:16;15.80;99.90
5683;DHT22;2864;49.220;8.654;2023-09-07T03:52:41;15.70;99.90
5683;DHT22;2864;49.220;8.654;2023-09-07T03:55:07;15.60;99.90
5683;DHT22;2864;49.220;8.654;2023-09-07T03:57:33;15.60;99.90
5683;DHT22;2864;49.220;8.654;2023-09-07T03:59:59;15.50;99.90
5683;DHT22;2864;49.220;8.654;2023-09-07T04:02:25;15.40;99.90
5683;DHT22;2864;49.220;8.654;2023-09-07T04:04:51;15.40;99.90
5683;DHT22;2864;49.220;8.654;2023-09-07T04:07:17;15.30;99.90
5683;DHT22;2864;49.220;8.654;2023-09-07T04:09:44;15.20;99.90
5683;DHT22;2864;49.220;8.654;2023-09-07T04:12:10;15.10;99.90
5683;DHT22;2864;49.220;8.654;2023-09-07T04:14:35;15.10;99.90
5683;DHT22;2864;49.220;8.654;2023-09-07T04:17:01;15.00;99.90
5683;DHT22;2864;49.220;8.654;2023-09-07T04:19:27;15.00;99.90
5683;DHT22;2864;49.220;8.654;2023-09-07T04:21:52;15.00;99.90
5683;DHT22;2864;49.220;8.654;2023-09-07T04:24:18;14.90;99.90
5683;DHT22;2864;49.220;8.654;2023-09-07T04:26:43;14.80;99.90
5683;DHT22;2864;49.220;8.654;2023-09-07T04:29:09;14.80;99.90
5683;DHT22;2864;49.220;8.654;2023-09-07T04:31:35;14.70;99.90
5683;DHT22;2864;49.220;8.654;2023-09-07T04:34:01;14.70;99.90
5683;DHT22;2864;49.220;8.654;2023-09-07T04:36:28;14.60;99.90
5683;DHT22;2864;49.220;8.654;2023-09-07T04:38:53;14.60;99.90
5683;DHT22;2864;49.220;8.654;2023-09-07T04:41:19;14.60;99.90
5683;DHT22;2864;49.220;8.654;2023-09-07T04:43:45;14.60;99.90
5683;DHT22;2864;49.220;8.654;2023-09-07T04:46:11;14.60;99.90
5683;DHT22;2864;49.220;8.654;2023-09-07T04:48:37;14.60;99.90
5683;DHT22;2864;49.220;8.654;2023-09-07T04:51:05;14.60;99.90
5683;DHT22;2864;49.220;8.654;2023-09-07T04:53:33;14.60;99.90
5683;DHT22;2864;49.220;8.654;2023-09-07T04:56:00;14.60;99.90
5683;DHT22;2864;49.220;8.654;2023-09-07T04:58:26;14.70;99.90
5683;DHT22;2864;49.220;8.654;2023-09-07T05:00:52;14.50;99.90
5683;DHT22;2864;49.220;8.654;2023-09-07T05:03:17;14.50;99.90
5683;DHT22;2864;49.220;8.654;2023-09-07T05:05:43;14.50;99.90
5683;DHT22;2864;49.220;8.654;2023-09-07T05:08:10;14.60;99.90
5683;DHT22;2864;49.220;8.654;2023-09-07T05:10:36;14.50;99.90
5683;DHT22;2864;49.220;8.654;2023-09-07T05:13:02;14.60;99.90
5683;DHT22;2864;49.220;8.654;2023-09-07T05:15:27;14.60;99.90
5683;DHT22;2864;49.220;8.654;2023-09-07T05:17:54;14.60;99.90
5683;DHT22;2864;49.220;8.654;2023-09-07T05:20:19;14.60;99.90
5683;DHT22;2864;49.220;8.654;2023-09-07T05:22:45;14.60;99.90
5683;DHT22;2864;49.220;8.654;2023-09-07T05:25:11;14.70;99.90
5683;DHT22;2864;49.220;8.654;2023-09-07T05:27:37;14.70;99.90
5683;DHT22;2864;49.220;8.654;2023-09-07T05:30:03;14.80;99.90
5683;DHT22;2864;49.220;8.654;2023-09-07T05:32:29;14.90;99.90
5683;DHT22;2864;49.220;8.654;2023-09-07T05:34:55;14.90;99.90
5683;DHT22;2864;49.220;8.654;2023-09-07T05:37:20;15.00;99.90
5683;DHT22;2864;49.220;8.654;2023-09-07T05:39:46;15.00;99.90
5683;DHT22;2864;49.220;8.654;2023-09-07T05:42:11;15.10;99.90
5683;DHT22;2864;49.220;8.654;2023-09-07T05:44:38;15.20;99.90
5683;DHT22;2864;49.220;8.654;2023-09-07T05:47:04;15.60;99.90
5683;DHT22;2864;49.220;8.654;2023-09-07T05:49:30;15.30;99.90
5683;DHT22;2864;49.220;8.654;2023-09-07T05:51:56;17.00;99.90
5683;DHT22;2864;49.220;8.654;2023-09-07T05:54:21;15.60;99.90
5683;DHT22;2864;49.220;8.654;2023-09-07T05:56:47;15.80;99.90
5683;DHT22;2864;49.220;8.654;2023-09-07T05:59:12;18.00;99.90
5683;DHT22;2864;49.220;8.654;2023-09-07T06:01:39;16.20;99.90
5683;DHT22;2864;49.220;8.654;2023-09-07T06:04:05;16.30;99.90
5683;DHT22;2864;49.220;8.654;2023-09-07T06:06:31;16.40;99.90
5683;DHT22;2864;49.220;8.654;2023-09-07T06:08:56;16.50;99.90
5683;DHT22;2864;49.220;8.654;2023-09-07T06:11:24;16.60;99.90
5683;DHT22;2864;49.220;8.654;2023-09-07T06:13:50;16.70;99.90
5683;DHT22;2864;49.220;8.654;2023-09-07T06:19:37;17.00;99.90
5683;DHT22;2864;49.220;8.654;2023-09-07T06:22:03;17.20;99.90
5683;DHT22;2864;49.220;8.654;2023-09-07T06:24:29;17.30;99.90
5683;DHT22;2864;49.220;8.654;2023-09-07T06:26:54;17.40;99.90
5683;DHT22;2864;49.220;8.654;2023-09-07T06:29:20;17.60;99.90
5683;DHT22;2864;49.220;8.654;2023-09-07T06:31:45;17.70;99.90
5683;DHT22;2864;49.220;8.654;2023-09-07T06:34:11;17.80;99.90
5683;DHT22;2864;49.220;8.654;2023-09-07T06:36:36;17.90;99.90
5683;DHT22;2864;49.220;8.654;2023-09-07T06:39:02;18.00;99.90
5683;DHT22;2864;49.220;8.654;2023-09-07T06:41:28;18.20;99.90
5683;DHT22;2864;49.220;8.654;2023-09-07T06:43:53;18.20;99.90
5683;DHT22;2864;49.220;8.654;2023-09-07T06:46:19;20.10;99.90
5683;DHT22;2864;49.220;8.654;2023-09-07T06:48:44;18.50;99.90
5683;DHT22;2864;49.220;8.654;2023-09-07T06:51:10;19.10;99.90
5683;DHT22;2864;49.220;8.654;2023-09-07T06:53:36;18.80;99.90
5683;DHT22;2864;49.220;8.654;2023-09-07T06:56:02;18.90;99.90
5683;DHT22;2864;49.220;8.654;2023-09-07T06:58:28;19.00;99.90
5683;DHT22;2864;49.220;8.654;2023-09-07T07:01:01;19.10;99.90
5683;DHT22;2864;49.220;8.654;2023-09-07T07:03:28;19.30;99.90
5683;DHT22;2864;49.220;8.654;2023-09-07T07:05:55;19.50;99.90
5683;DHT22;2864;49.220;8.654;2023-09-07T07:08:21;19.60;99.90
5683;DHT22;2864;49.220;8.654;2023-09-07T07:10:46;19.70;99.90
5683;DHT22;2864;49.220;8.654;2023-09-07T07:13:12;19.80;99.90
5683;DHT22;2864;49.220;8.654;2023-09-07T07:15:37;20.00;99.90
5683;DHT22;2864;49.220;8.654;2023-09-07T07:18:03;20.20;99.90
5683;DHT22;2864;49.220;8.654;2023-09-07T07:20:41;20.30;99.90
5683;DHT22;2864;49.220;8.654;2023-09-07T07:23:07;20.40;99.90
5683;DHT22;2864;49.220;8.654;2023-09-07T07:25:33;20.50;99.90
5683;DHT22;2864;49.220;8.654;2023-09-07T07:27:59;22.70;99.90
5683;DHT22;2864;49.220;8.654;2023-09-07T07:30:28;20.90;99.90
5683;DHT22;2864;49.220;8.654;2023-09-07T07:32:57;21.00;99.90
5683;DHT22;2864;49.220;8.654;2023-09-07T07:35:22;22.70;99.90
5683;DHT22;2864;49.220;8.654;2023-09-07T07:37:49;21.20;99.90
5683;DHT22;2864;49.220;8.654;2023-09-07T07:40:15;21.50;99.90
5683;DHT22;2864;49.220;8.654;2023-09-07T07:42:40;21.50;99.90
5683;DHT22;2864;49.220;8.654;2023-09-07T07:45:07;21.60;99.90
5683;DHT22;2864;49.220;8.654;2023-09-07T07:47:33;21.60;99.90
5683;DHT22;2864;49.220;8.654;2023-09-07T07:49:58;21.80;99.50
5683;DHT22;2864;49.220;8.654;2023-09-07T07:52:24;22.20;98.80
5683;DHT22;2864;49.220;8.654;2023-09-07T07:54:49;22.00;98.60
5683;DHT22;2864;49.220;8.654;2023-09-07T07:57:15;22.10;98.30
5683;DHT22;2864;49.220;8.654;2023-09-07T07:59:40;22.20;98.20
5683;DHT22;2864;49.220;8.654;2023-09-07T08:02:06;22.30;97.60
5683;DHT22;2864;49.220;8.654;2023-09-07T08:04:32;22.40;97.50
5683;DHT22;2864;49.220;8.654;2023-09-07T08:06:58;22.50;97.50
5683;DHT22;2864;49.220;8.654;2023-09-07T08:09:29;22.50;96.90
5683;DHT22;2864;49.220;8.654;2023-09-07T08:11:55;24.70;97.70
5683;DHT22;2864;49.220;8.654;2023-09-07T08:14:21;22.70;96.40
5683;DHT22;2864;49.220;8.654;2023-09-07T08:16:47;23.40;96.50
5683;DHT22;2864;49.220;8.654;2023-09-07T08:19:13;23.00;96.40
5683;DHT22;2864;49.220;8.654;2023-09-07T08:21:39;23.00;96.00
5683;DHT22;2864;49.220;8.654;2023-09-07T08:24:08;23.10;95.80
5683;DHT22;2864;49.220;8.654;2023-09-07T08:26:35;23.20;95.60
5683;DHT22;2864;49.220;8.654;2023-09-07T08:29:00;23.30;95.30
5683;DHT22;2864;49.220;8.654;2023-09-07T08:31:31;23.40;94.80
5683;DHT22;2864;49.220;8.654;2023-09-07T08:33:56;23.50;94.50
5683;DHT22;2864;49.220;8.654;2023-09-07T08:36:22;24.30;94.60
5683;DHT22;2864;49.220;8.654;2023-09-07T08:38:50;23.80;94.20
5683;DHT22;2864;49.220;8.654;2023-09-07T08:41:20;23.80;93.90
5683;DHT22;2864;49.220;8.654;2023-09-07T08:43:46;23.90;93.80
5683;DHT22;2864;49.220;8.654;2023-09-07T08:46:14;24.10;93.60
5683;DHT22;2864;49.220;8.654;2023-09-07T08:48:42;24.00;93.40
5683;DHT22;2864;49.220;8.654;2023-09-07T08:51:09;24.10;93.50
5683;DHT22;2864;49.220;8.654;2023-09-07T08:53:37;24.20;93.20
5683;DHT22;2864;49.220;8.654;2023-09-07T08:56:04;24.40;93.60
5683;DHT22;2864;49.220;8.654;2023-09-07T08:58:31;24.50;92.90
5683;DHT22;2864;49.220;8.654;2023-09-07T09:00:57;24.50;93.10
5683;DHT22;2864;49.220;8.654;2023-09-07T09:03:23;26.80;93.60
5683;DHT22;2864;49.220;8.654;2023-09-07T09:05:50;25.00;92.60
5683;DHT22;2864;49.220;8.654;2023-09-07T09:08:16;24.80;92.00
5683;DHT22;2864;49.220;8.654;2023-09-07T09:10:46;24.80;92.30
5683;DHT22;2864;49.220;8.654;2023-09-07T09:13:11;25.00;91.90
5683;DHT22;2864;49.220;8.654;2023-09-07T09:15:37;25.10;91.90
5683;DHT22;2864;49.220;8.654;2023-09-07T09:18:10;25.20;91.60
5683;DHT22;2864;49.220;8.654;2023-09-07T09:20:37;25.20;91.50
5683;DHT22;2864;49.220;8.654;2023-09-07T09:23:03;25.30;91.80
5683;DHT22;2864;49.220;8.654;2023-09-07T09:25:31;25.40;91.30
5683;DHT22;2864;49.220;8.654;2023-09-07T09:27:57;25.40;91.50
5683;DHT22;2864;49.220;8.654;2023-09-07T09:30:22;25.50;91.20
5683;DHT22;2864;49.220;8.654;2023-09-07T09:32:48;25.70;91.00
5683;DHT22;2864;49.220;8.654;2023-09-07T09:35:17;25.80;91.00
5683;DHT22;2864;49.220;8.654;2023-09-07T09:37:47;27.30;91.10
5683;DHT22;2864;49.220;8.654;2023-09-07T09:40:14;25.90;90.60
5683;DHT22;2864;49.220;8.654;2023-09-07T09:42:43;25.90;90.50
5683;DHT22;2864;49.220;8.654;2023-09-07T09:45:10;26.00;90.40
5683;DHT22;2864;49.220;8.654;2023-09-07T09:47:41;26.20;90.40
5683;DHT22;2864;49.220;8.654;2023-09-07T09:50:09;26.30;90.30
5683;DHT22;2864;49.220;8.654;2023-09-07T09:52:35;26.40;89.90
5683;DHT22;2864;49.220;8.654;2023-09-07T09:55:06;26.50;88.30
5683;DHT22;2864;49.220;8.654;2023-09-07T09:57:34;26.40;88.90
5683;DHT22;2864;49.220;8.654;2023-09-07T10:00:00;27.10;88.80
5683;DHT22;2864;49.220;8.654;2023-09-07T10:02:36;26.60;88.10
5683;DHT22;2864;49.220;8.654;2023-09-07T10:05:03;26.70;87.60
5683;DHT22;2864;49.220;8.654;2023-09-07T10:07:42;26.70;86.90
5683;DHT22;2864;49.220;8.654;2023-09-07T10:10:15;26.90;87.10
5683;DHT22;2864;49.220;8.654;2023-09-07T10:12:44;27.00;87.10
5683;DHT22;2864;49.220;8.654;2023-09-07T10:15:24;26.90;86.50
5683;DHT22;2864;49.220;8.654;2023-09-07T10:17:49;27.10;87.10
5683;DHT22;2864;49.220;8.654;2023-09-07T10:20:17;27.20;86.50
5683;DHT22;2864;49.220;8.654;2023-09-07T10:22:43;28.50;86.60
5683;DHT22;2864;49.220;8.654;2023-09-07T10:25:20;27.60;85.20
5683;DHT22;2864;49.220;8.654;2023-09-07T10:27:45;27.70;84.00
5683;DHT22;2864;49.220;8.654;2023-09-07T10:30:12;28.30;84.50
5683;DHT22;2864;49.220;8.654;2023-09-07T10:32:39;27.80;83.40
5683;DHT22;2864;49.220;8.654;2023-09-07T10:35:14;27.80;84.30
5683;DHT22;2864;49.220;8.654;2023-09-07T10:37:40;27.90;83.60
5683;DHT22;2864;49.220;8.654;2023-09-07T10:40:07;27.90;83.00
5683;DHT22;2864;49.220;8.654;2023-09-07T10:42:37;28.00;82.60
5683;DHT22;2864;49.220;8.654;2023-09-07T10:45:15;28.00;82.40
5683;DHT22;2864;49.220;8.654;2023-09-07T10:47:45;28.10;82.30
5683;DHT22;2864;49.220;8.654;2023-09-07T10:50:14;28.20;81.80
5683;DHT22;2864;49.220;8.654;2023-09-07T10:52:41;28.30;84.20
5683;DHT22;2864;49.220;8.654;2023-09-07T10:55:08;28.60;81.00
5683;DHT22;2864;49.220;8.654;2023-09-07T10:57:42;28.80;80.80
5683;DHT22;2864;49.220;8.654;2023-09-07T11:00:08;28.90;79.50
5683;DHT22;2864;49.220;8.654;2023-09-07T11:02:37;29.00;79.30
5683;DHT22;2864;49.220;8.654;2023-09-07T11:05:03;29.10;79.50
5683;DHT22;2864;49.220;8.654;2023-09-07T11:07:28;29.20;78.80
5683;DHT22;2864;49.220;8.654;2023-09-07T11:09:54;28.90;78.60
5683;DHT22;2864;49.220;8.654;2023-09-07T11:12:20;28.90;79.10
5683;DHT22;2864;49.220;8.654;2023-09-07T11:14:50;29.20;78.20
5683;DHT22;2864;49.220;8.654;2023-09-07T11:17:17;29.30;78.10
5683;DHT22;2864;49.220;8.654;2023-09-07T11:19:43;29.30;77.10
5683;DHT22;2864;49.220;8.654;2023-09-07T11:22:12;29.60;77.20
5683;DHT22;2864;49.220;8.654;2023-09-07T11:24:37;29.70;75.80
5683;DHT22;2864;49.220;8.654;2023-09-07T11:27:03;29.80;75.30
5683;DHT22;2864;49.220;8.654;2023-09-07T11:29:31;29.60;75.80
5683;DHT22;2864;49.220;8.654;2023-09-07T11:32:10;29.90;74.20
5683;DHT22;2864;49.220;8.654;2023-09-07T11:34:47;29.90;75.30
5683;DHT22;2864;49.220;8.654;2023-09-07T11:37:13;29.80;74.20
5683;DHT22;2864;49.220;8.654;2023-09-07T11:39:39;30.60;74.10
5683;DHT22;2864;49.220;8.654;2023-09-07T11:42:04;29.80;73.70
5683;DHT22;2864;49.220;8.654;2023-09-07T11:44:30;30.10;73.10
5683;DHT22;2864;49.220;8.654;2023-09-07T11:46:55;30.30;72.60
5683;DHT22;2864;49.220;8.654;2023-09-07T11:49:21;30.50;72.90
5683;DHT22;2864;49.220;8.654;2023-09-07T11:51:47;30.80;72.80
5683;DHT22;2864;49.220;8.654;2023-09-07T11:54:13;30.50;72.50
5683;DHT22;2864;49.220;8.654;2023-09-07T11:56:38;30.70;70.80
5683;DHT22;2864;49.220;8.654;2023-09-07T11:59:08;30.80;71.70
5683;DHT22;2864;49.220;8.654;2023-09-07T12:04:56;30.60;71.00
5683;DHT22;2864;49.220;8.654;2023-09-07T12:07:22;30.90;71.00
5683;DHT22;2864;49.220;8.654;2023-09-07T12:09:48;31.10;71.50
5683;DHT22;2864;49.220;8.654;2023-09-07T12:12:14;31.30;70.30
5683;DHT22;2864;49.220;8.654;2023-09-07T12:14:39;31.40;68.40
5683;DHT22;2864;49.220;8.654;2023-09-07T12:17:05;31.50;68.80
5683;DHT22;2864;49.220;8.654;2023-09-07T12:19:30;31.60;68.20
5683;DHT22;2864;49.220;8.654;2023-09-07T12:21:56;31.80;68.60
5683;DHT22;2864;49.220;8.654;2023-09-07T12:24:22;32.00;67.40
5683;DHT22;2864;49.220;8.654;2023-09-07T12:26:47;31.80;67.90
5683;DHT22;2864;49.220;8.654;2023-09-07T12:29:13;31.90;68.10
5683;DHT22;2864;49.220;8.654;2023-09-07T12:31:38;32.10;67.80
5683;DHT22;2864;49.220;8.654;2023-09-07T12:34:04;32.30;66.00
5683;DHT22;2864;49.220;8.654;2023-09-07T12:36:30;32.60;66.10
5683;DHT22;2864;49.220;8.654;2023-09-07T12:38:56;32.50;66.10
5683;DHT22;2864;49.220;8.654;2023-09-07T12:41:27;32.70;64.50
5683;DHT22;2864;49.220;8.654;2023-09-07T12:43:54;32.30;64.50
5683;DHT22;2864;49.220;8.654;2023-09-07T12:46:19;32.50;65.30
5683;DHT22;2864;49.220;8.654;2023-09-07T12:48:45;32.90;64.50
5683;DHT22;2864;49.220;8.654;2023-09-07T12:51:10;33.10;64.30
5683;DHT22;2864;49.220;8.654;2023-09-07T12:53:36;34.00;63.70
5683;DHT22;2864;49.220;8.654;2023-09-07T12:56:02;34.00;62.30
5683;DHT22;2864;49.220;8.654;2023-09-07T12:58:28;34.60;61.20
5683;DHT22;2864;49.220;8.654;2023-09-07T13:00:54;35.10;61.20
5683;DHT22;2864;49.220;8.654;2023-09-07T13:03:20;35.40;59.70
5683;DHT22;2864;49.220;8.654;2023-09-07T13:05:45;35.70;58.90
5683;DHT22;2864;49.220;8.654;2023-09-07T13:08:11;35.10;59.20
5683;DHT22;2864;49.220;8.654;2023-09-07T13:10:37;35.60;58.60
5683;DHT22;2864;49.220;8.654;2023-09-07T13:13:03;36.20;59.10
5683;DHT22;2864;49.220;8.654;2023-09-07T13:15:28;36.60;58.70
5683;DHT22;2864;49.220;8.654;2023-09-07T13:17:54;37.10;58.10
5683;DHT22;2864;49.220;8.654;2023-09-07T13:20:20;36.90;57.70
5683;DHT22;2864;49.220;8.654;2023-09-07T13:22:45;37.30;57.20
5683;DHT22;2864;49.220;8.654;2023-09-07T13:25:14;37.80;56.80
5683;DHT22;2864;49.220;8.654;2023-09-07T13:27:39;38.40;55.50
5683;DHT22;2864;49.220;8.654;2023-09-07T13:30:05;37.70;55.70
5683;DHT22;2864;49.220;8.654;2023-09-07T13:32:33;37.70;55.10
5683;DHT22;2864;49.220;8.654;2023-09-07T13:34:59;38.20;55.00
5683;DHT22;2864;49.220;8.654;2023-09-07T13:37:25;37.80;55.20
5683;DHT22;2864;49.220;8.654;2023-09-07T13:39:50;38.20;55.20
5683;DHT22;2864;49.220;8.654;2023-09-07T13:42:16;38.80;54.00
5683;DHT22;2864;49.220;8.654;2023-09-07T13:44:41;38.90;53.90
5683;DHT22;2864;49.220;8.654;2023-09-07T13:47:07;39.10;54.80
5683;DHT22;2864;49.220;8.654;2023-09-07T13:49:35;38.60;54.70
5683;DHT22;2864;49.220;8.654;2023-09-07T13:52:01;38.50;54.60
5683;DHT22;2864;49.220;8.654;2023-09-07T13:54:26;38.90;54.80
5683;DHT22;2864;49.220;8.654;2023-09-07T13:56:52;39.20;54.50
5683;DHT22;2864;49.220;8.654;2023-09-07T13:59:17;38.90;54.40
5683;DHT22;2864;49.220;8.654;2023-09-07T14:05:06;38.60;53.60
5683;DHT22;2864;49.220;8.654;2023-09-07T14:07:33;39.30;53.30
5683;DHT22;2864;49.220;8.654;2023-09-07T14:09:58;38.80;53.60
5683;DHT22;2864;49.220;8.654;2023-09-07T14:12:24;38.90;53.90
5683;DHT22;2864;49.220;8.654;2023-09-07T14:14:50;39.40;53.00
5683;DHT22;2864;49.220;8.654;2023-09-07T14:17:16;40.20;53.60
5683;DHT22;2864;49.220;8.654;2023-09-07T14:19:41;40.20;53.00
5683;DHT22;2864;49.220;8.654;2023-09-07T14:22:07;39.50;53.10
5683;DHT22;2864;49.220;8.654;2023-09-07T14:24:32;39.50;52.50
5683;DHT22;2864;49.220;8.654;2023-09-07T14:26:58;39.60;52.30
5683;DHT22;2864;49.220;8.654;2023-09-07T14:29:23;40.60;52.00
5683;DHT22;2864;49.220;8.654;2023-09-07T14:31:49;41.00;52.10
5683;DHT22;2864;49.220;8.654;2023-09-07T14:34:14;40.70;51.80
5683;DHT22;2864;49.220;8.654;2023-09-07T14:36:40;41.20;51.30
5683;DHT22;2864;49.220;8.654;2023-09-07T14:39:06;40.90;51.60
5683;DHT22;2864;49.220;8.654;2023-09-07T14:41:32;41.70;50.90
5683;DHT22;2864;49.220;8.654;2023-09-07T14:43:59;41.60;50.80
5683;DHT22;2864;49.220;8.654;2023-09-07T14:46:25;42.00;51.20
5683;DHT22;2864;49.220;8.654;2023-09-07T14:48:51;41.60;50.70
5683;DHT22;2864;49.220;8.654;2023-09-07T14:51:17;41.80;50.50
5683;DHT22;2864;49.220;8.654;2023-09-07T14:53:43;42.00;50.90
5683;DHT22;2864;49.220;8.654;2023-09-07T14:56:09;42.20;50.40
5683;DHT22;2864;49.220;8.654;2023-09-07T14:58:35;42.20;49.50
5683;DHT22;2864;49.220;8.654;2023-09-07T15:01:01;42.20;49.80
5683;DHT22;2864;49.220;8.654;2023-09-07T15:03:26;41.40;49.40
5683;DHT22;2864;49.220;8.654;2023-09-07T15:05:52;40.90;50.40
5683;DHT22;2864;49.220;8.654;2023-09-07T15:08:17;41.50;50.20
5683;DHT22;2864;49.220;8.654;2023-09-07T15:10:43;41.50;49.70
5683;DHT22;2864;49.220;8.654;2023-09-07T15:13:09;42.30;49.40
5683;DHT22;2864;49.220;8.654;2023-09-07T15:15:35;42.80;49.30
5683;DHT22;2864;49.220;8.654;2023-09-07T15:18:05;42.70;49.10
5683;DHT22;2864;49.220;8.654;2023-09-07T15:20:31;43.20;48.70
5683;DHT22;2864;49.220;8.654;2023-09-07T15:22:57;42.60;48.90
5683;DHT22;2864;49.220;8.654;2023-09-07T15:25:23;42.40;48.80
5683;DHT22;2864;49.220;8.654;2023-09-07T15:27:48;42.60;49.10
5683;DHT22;2864;49.220;8.654;2023-09-07T15:30:14;42.40;48.60
5683;DHT22;2864;49.220;8.654;2023-09-07T15:32:40;42.30;48.50
5683;DHT22;2864;49.220;8.654;2023-09-07T15:35:07;42.00;48.80
5683;DHT22;2864;49.220;8.654;2023-09-07T15:37:33;41.60;48.90
5683;DHT22;2864;49.220;8.654;2023-09-07T15:39:59;41.60;48.70
5683;DHT22;2864;49.220;8.654;2023-09-07T15:42:24;42.10;48.70
5683;DHT22;2864;49.220;8.654;2023-09-07T15:44:51;42.50;48.40
5683;DHT22;2864;49.220;8.654;2023-09-07T15:47:16;42.10;48.50
5683;DHT22;2864;49.220;8.654;2023-09-07T15:49:43;41.60;48.70
5683;DHT22;2864;49.220;8.654;2023-09-07T15:52:10;41.60;48.60
5683;DHT22;2864;49.220;8.654;2023-09-07T15:54:36;41.80;48.90
5683;DHT22;2864;49.220;8.654;2023-09-07T15:57:01;41.70;48.90
5683;DHT22;2864;49.220;8.654;2023-09-07T15:59:29;41.90;48.70
5683;DHT22;2864;49.220;8.654;2023-09-07T16:01:54;42.10;48.30
5683;DHT22;2864;49.220;8.654;2023-09-07T16:04:20;42.50;48.50
5683;DHT22;2864;49.220;8.654;2023-09-07T16:06:45;42.50;48.80